sensor_id;sensor_type;location;lat;lon;timestamp;pressure;altitude;pressure_sealevel;temperature;humidity
9855;BME280;4966;48.112;9.282;2023-02-01T00:01:38;95370.78;;;2.44;81.85
9855;BME280;4966;48.112;9.282;2023-02-01T00:04:04;95364.59;;;2.54;81.87
9855;BME280;4966;48.112;9.282;2023-02-01T00:06:29;95373.72;;;2.58;81.44
9855;BME280;4966;48.112;9.282;2023-02-01T00:08:55;95370.75;;;2.60;81.40
9855;BME280;4966;48.112;9.282;2023-02-01T00:11:21;95365.09;;;2.76;80.74
9855;BME280;4966;48.112;9.282;2023-02-01T00:13:47;95364.31;;;2.71;80.50
9855;BME280;4966;48.112;9.282;2023-02-01T00:16:15;95357.84;;;2.67;80.97
9855;BME280;4966;48.112;9.282;2023-02-01T00:18:45;95362.41;;;2.82;80.33
9855;BME280;4966;48.112;9.282;2023-02-01T00:21:12;95346.06;;;2.52;81.91
9855;BME280;4966;48.112;9.282;2023-02-01T00:23:37;95353.31;;;2.57;81.84
9855;BME280;4966;48.112;9.282;2023-02-01T00:26:07;95344.97;;;2.53;81.93
9855;BME280;4966;48.112;9.282;2023-02-01T00:28:33;95360.03;;;2.60;82.20
9855;BME280;4966;48.112;9.282;2023-02-01T00:31:00;95349.28;;;2.54;81.97
9855;BME280;4966;48.112;9.282;2023-02-01T00:33:26;95349.28;;;2.54;82.24
9855;BME280;4966;48.112;9.282;2023-02-01T00:35:56;95344.44;;;2.57;81.99
9855;BME280;4966;48.112;9.282;2023-02-01T00:38:22;95339.34;;;2.34;83.72
9855;BME280;4966;48.112;9.282;2023-02-01T00:40:47;95354.13;;;2.17;84.29
9855;BME280;4966;48.112;9.282;2023-02-01T00:43:13;95348.50;;;2.23;84.27
9855;BME280;4966;48.112;9.282;2023-02-01T00:45:38;95359.78;;;2.30;83.92
9855;BME280;4966;48.112;9.282;2023-02-01T00:48:03;95352.78;;;2.24;84.40
9855;BME280;4966;48.112;9.282;2023-02-01T00:50:29;95346.06;;;2.22;84.33
9855;BME280;4966;48.112;9.282;2023-02-01T00:52:54;95352.78;;;2.34;83.81
9855;BME280;4966;48.112;9.282;2023-02-01T00:55:20;95343.13;;;2.23;84.19
9855;BME280;4966;48.112;9.282;2023-02-01T00:57:45;95338.03;;;2.11;84.82
9855;BME280;4966;48.112;9.282;2023-02-01T01:00:11;95341.25;;;2.13;84.97
9855;BME280;4966;48.112;9.282;2023-02-01T01:02:36;95334.00;;;2.09;85.36
9855;BME280;4966;48.112;9.282;2023-02-01T01:05:01;95339.88;;;2.06;85.96
9855;BME280;4966;48.112;9.282;2023-02-01T01:07:27;95334.00;;;2.04;85.93
9855;BME280;4966;48.112;9.282;2023-02-01T01:09:53;95330.50;;;2.29;84.51
9855;BME280;4966;48.112;9.282;2023-02-01T01:12:18;95332.91;;;2.10;85.71
9855;BME280;4966;48.112;9.282;2023-02-01T01:14:45;95339.63;;;2.18;84.96
9855;BME280;4966;48.112;9.282;2023-02-01T01:17:10;95338.28;;;2.15;85.90
9855;BME280;4966;48.112;9.282;2023-02-01T01:19:35;95338.56;;;2.08;85.76
9855;BME280;4966;48.112;9.282;2023-02-01T01:22:01;95333.19;;;2.08;85.99
9855;BME280;4966;48.112;9.282;2023-02-01T01:24:26;95331.06;;;2.16;85.48
9855;BME280;4966;48.112;9.282;2023-02-01T01:26:51;95336.69;;;2.09;84.93
9855;BME280;4966;48.112;9.282;2023-02-01T01:29:17;95331.31;;;2.04;85.56
9855;BME280;4966;48.112;9.282;2023-02-01T01:31:42;95311.41;;;1.74;87.33
9855;BME280;4966;48.112;9.282;2023-02-01T01:34:08;95313.59;;;1.92;86.51
9855;BME280;4966;48.112;9.282;2023-02-01T01:36:33;95307.94;;;1.74;87.78
9855;BME280;4966;48.112;9.282;2023-02-01T01:38:58;95328.06;;;1.86;86.98
9855;BME280;4966;48.112;9.282;2023-02-01T01:41:26;95315.44;;;1.66;87.99
9855;BME280;4966;48.112;9.282;2023-02-01T01:43:54;95322.44;;;1.83;87.54
9855;BME280;4966;48.112;9.282;2023-02-01T01:46:25;95314.94;;;1.85;87.58
9855;BME280;4966;48.112;9.282;2023-02-01T01:51:24;95314.34;;;1.62;88.91
9855;BME280;4966;48.112;9.282;2023-02-01T01:54:01;95316.22;;;1.52;90.02
9855;BME280;4966;48.112;9.282;2023-02-01T01:56:28;95309.28;;;1.61;89.30
9855;BME280;4966;48.112;9.282;2023-02-01T01:58:55;95307.69;;;1.80;89.26
9855;BME280;4966;48.112;9.282;2023-02-01T02:01:21;95315.19;;;1.94;88.04
9855;BME280;4966;48.112;9.282;2023-02-01T02:03:47;95320.59;;;2.04;86.89
9855;BME280;4966;48.112;9.282;2023-02-01T02:09:03;95303.66;;;2.24;85.12
9855;BME280;4966;48.112;9.282;2023-02-01T02:11:29;95299.63;;;2.31;85.16
9855;BME280;4966;48.112;9.282;2023-02-01T02:13:56;95294.81;;;2.08;85.86
9855;BME280;4966;48.112;9.282;2023-02-01T02:38:44;95281.66;;;2.11;87.75
9855;BME280;4966;48.112;9.282;2023-02-01T02:41:20;95297.50;;;1.92;88.06
9855;BME280;4966;48.112;9.282;2023-02-01T02:47:23;95281.69;;;2.01;88.80
9855;BME280;4966;48.112;9.282;2023-02-01T02:49:56;95273.88;;;2.05;88.81
9855;BME280;4966;48.112;9.282;2023-02-01T02:53:12;95281.94;;;2.05;88.30
9855;BME280;4966;48.112;9.282;2023-02-01T02:55:58;95270.41;;;2.04;88.56
9855;BME280;4966;48.112;9.282;2023-02-01T02:58:43;95269.03;;;2.17;87.97
9855;BME280;4966;48.112;9.282;2023-02-01T03:01:30;95266.84;;;2.34;86.43
9855;BME280;4966;48.112;9.282;2023-02-01T03:04:14;95266.88;;;2.24;86.59
9855;BME280;4966;48.112;9.282;2023-02-01T03:06:43;95265.53;;;2.22;87.54
9855;BME280;4966;48.112;9.282;2023-02-01T03:09:13;95264.19;;;2.24;87.63
9855;BME280;4966;48.112;9.282;2023-02-01T03:11:44;95253.44;;;2.29;87.40
9855;BME280;4966;48.112;9.282;2023-02-01T03:14:32;95255.38;;;2.08;88.38
9855;BME280;4966;48.112;9.282;2023-02-01T03:17:05;95268.78;;;2.03;88.91
9855;BME280;4966;48.112;9.282;2023-02-01T03:19:35;95255.34;;;2.24;87.47
9855;BME280;4966;48.112;9.282;2023-02-01T03:22:04;95264.16;;;2.34;87.18
9855;BME280;4966;48.112;9.282;2023-02-01T03:27:16;95268.72;;;2.54;85.96
9855;BME280;4966;48.112;9.282;2023-02-01T03:32:36;95261.53;;;2.14;87.51
9855;BME280;4966;48.112;9.282;2023-02-01T03:35:36;95254.25;;;2.35;86.75
9855;BME280;4966;48.112;9.282;2023-02-01T03:38:21;95261.25;;;2.31;86.73
9855;BME280;4966;48.112;9.282;2023-02-01T03:44:08;95263.59;;;2.68;84.83
9855;BME280;4966;48.112;9.282;2023-02-01T03:46:50;95269.03;;;2.38;86.20
9855;BME280;4966;48.112;9.282;2023-02-01T03:49:28;95271.41;;;2.49;85.63
9855;BME280;4966;48.112;9.282;2023-02-01T03:51:56;95293.13;;;2.68;84.83
9855;BME280;4966;48.112;9.282;2023-02-01T03:54:23;95278.56;;;2.80;83.84
9855;BME280;4966;48.112;9.282;2023-02-01T03:56:50;95289.38;;;2.64;84.83
9855;BME280;4966;48.112;9.282;2023-02-01T03:59:15;95294.72;;;2.74;84.01
9855;BME280;4966;48.112;9.282;2023-02-01T04:01:41;95293.69;;;2.50;85.27
9855;BME280;4966;48.112;9.282;2023-02-01T04:04:07;95288.88;;;2.47;85.77
9855;BME280;4966;48.112;9.282;2023-02-01T04:06:32;95295.84;;;2.53;85.60
9855;BME280;4966;48.112;9.282;2023-02-01T04:08:57;95295.28;;;2.66;84.68
9855;BME280;4966;48.112;9.282;2023-02-01T04:11:23;95299.25;;;2.79;83.91
9855;BME280;4966;48.112;9.282;2023-02-01T04:13:48;95297.22;;;2.40;85.82
9855;BME280;4966;48.112;9.282;2023-02-01T04:16:14;95292.84;;;2.65;85.07
9855;BME280;4966;48.112;9.282;2023-02-01T04:18:39;95294.22;;;2.62;84.99
9855;BME280;4966;48.112;9.282;2023-02-01T04:21:05;95292.31;;;2.68;84.89
9855;BME280;4966;48.112;9.282;2023-02-01T04:23:30;95295.03;;;2.58;85.23
9855;BME280;4966;48.112;9.282;2023-02-01T04:26:03;95276.25;;;2.32;86.38
9855;BME280;4966;48.112;9.282;2023-02-01T04:28:29;95270.38;;;2.30;86.91
9855;BME280;4966;48.112;9.282;2023-02-01T04:30:55;95278.41;;;2.25;87.39
9855;BME280;4966;48.112;9.282;2023-02-01T04:33:21;95284.28;;;2.58;86.29
9855;BME280;4966;48.112;9.282;2023-02-01T04:35:47;95278.41;;;2.45;86.63
9855;BME280;4966;48.112;9.282;2023-02-01T04:38:12;95270.00;;;2.72;84.96
9855;BME280;4966;48.112;9.282;2023-02-01T04:40:37;95277.53;;;2.75;84.76
9855;BME280;4966;48.112;9.282;2023-02-01T04:43:03;95269.97;;;2.83;84.31
9855;BME280;4966;48.112;9.282;2023-02-01T04:45:29;95266.44;;;2.87;84.54
9855;BME280;4966;48.112;9.282;2023-02-01T04:47:55;95247.06;;;2.95;83.72
9855;BME280;4966;48.112;9.282;2023-02-01T04:50:20;95249.59;;;2.71;84.48
9855;BME280;4966;48.112;9.282;2023-02-01T04:52:45;95237.72;;;2.77;83.61
9855;BME280;4966;48.112;9.282;2023-02-01T04:55:12;95247.97;;;2.70;83.51
9855;BME280;4966;48.112;9.282;2023-02-01T04:57:38;95251.19;;;2.72;83.87
9855;BME280;4966;48.112;9.282;2023-02-01T05:00:06;95264.97;;;2.45;84.62
9855;BME280;4966;48.112;9.282;2023-02-01T05:02:32;95270.03;;;2.57;84.68
9855;BME280;4966;48.112;9.282;2023-02-01T05:04:57;95271.66;;;2.53;85.81
9855;BME280;4966;48.112;9.282;2023-02-01T05:07:23;95290.75;;;2.41;86.06
9855;BME280;4966;48.112;9.282;2023-02-01T05:09:48;95296.66;;;2.38;86.41
9855;BME280;4966;48.112;9.282;2023-02-01T05:12:14;95302.81;;;2.49;86.85
9855;BME280;4966;48.112;9.282;2023-02-01T05:14:57;95308.47;;;2.52;86.07
9855;BME280;4966;48.112;9.282;2023-02-01T05:17:23;95317.06;;;2.49;86.71
9855;BME280;4966;48.112;9.282;2023-02-01T05:19:48;95307.16;;;2.24;88.49
9855;BME280;4966;48.112;9.282;2023-02-01T05:22:13;95309.25;;;2.53;87.25
9855;BME280;4966;48.112;9.282;2023-02-01T05:24:39;95291.56;;;2.47;87.01
9855;BME280;4966;48.112;9.282;2023-02-01T05:27:04;95286.50;;;2.30;88.40
9855;BME280;4966;48.112;9.282;2023-02-01T05:29:30;95290.50;;;2.43;88.11
9855;BME280;4966;48.112;9.282;2023-02-01T05:31:55;95296.91;;;2.52;87.52
9855;BME280;4966;48.112;9.282;2023-02-01T05:34:20;95288.88;;;2.37;87.82
9855;BME280;4966;48.112;9.282;2023-02-01T05:36:46;95290.16;;;2.65;86.55
9855;BME280;4966;48.112;9.282;2023-02-01T05:39:11;95273.28;;;2.54;87.24
9855;BME280;4966;48.112;9.282;2023-02-01T05:41:37;95276.22;;;2.52;87.68
9855;BME280;4966;48.112;9.282;2023-02-01T05:44:02;95278.09;;;2.57;87.77
9855;BME280;4966;48.112;9.282;2023-02-01T05:46:28;95286.41;;;2.61;87.67
9855;BME280;4966;48.112;9.282;2023-02-01T05:48:53;95291.25;;;2.69;87.45
9855;BME280;4966;48.112;9.282;2023-02-01T05:51:19;95300.16;;;2.33;88.43
9855;BME280;4966;48.112;9.282;2023-02-01T05:53:44;95288.50;;;2.84;86.57
9855;BME280;4966;48.112;9.282;2023-02-01T05:56:09;95294.69;;;2.80;86.88
9855;BME280;4966;48.112;9.282;2023-02-01T05:58:35;95283.91;;;2.85;86.65
9855;BME280;4966;48.112;9.282;2023-02-01T06:01:01;95290.44;;;2.73;87.33
9855;BME280;4966;48.112;9.282;2023-02-01T06:03:26;95292.59;;;2.51;89.08
9855;BME280;4966;48.112;9.282;2023-02-01T06:05:52;95303.09;;;2.52;89.96
9855;BME280;4966;48.112;9.282;2023-02-01T06:08:18;95295.28;;;2.56;88.89
9855;BME280;4966;48.112;9.282;2023-02-01T06:10:43;95295.56;;;2.54;89.82
9855;BME280;4966;48.112;9.282;2023-02-01T06:13:08;95303.06;;;2.63;89.18
9855;BME280;4966;48.112;9.282;2023-02-01T06:15:34;95303.88;;;2.68;89.03
9855;BME280;4966;48.112;9.282;2023-02-01T06:18:00;95304.66;;;2.69;89.28
9855;BME280;4966;48.112;9.282;2023-02-01T06:20:25;95296.91;;;2.52;89.73
9855;BME280;4966;48.112;9.282;2023-02-01T06:22:51;95291.28;;;2.48;89.93
9855;BME280;4966;48.112;9.282;2023-02-01T06:25:17;95295.19;;;2.87;88.28
9855;BME280;4966;48.112;9.282;2023-02-01T06:27:44;95295.19;;;2.97;87.26
9855;BME280;4966;48.112;9.282;2023-02-01T06:30:11;95304.41;;;2.65;89.06
9855;BME280;4966;48.112;9.282;2023-02-01T06:32:39;95303.34;;;2.56;89.45
9855;BME280;4966;48.112;9.282;2023-02-01T06:35:09;95303.09;;;2.52;89.88
9855;BME280;4966;48.112;9.282;2023-02-01T06:37:41;95311.09;;;2.68;88.63
9855;BME280;4966;48.112;9.282;2023-02-01T06:40:07;95313.03;;;2.57;89.67
9855;BME280;4966;48.112;9.282;2023-02-01T06:42:33;95308.41;;;2.73;88.99
9855;BME280;4966;48.112;9.282;2023-02-01T06:44:59;95317.59;;;2.51;90.65
9855;BME280;4966;48.112;9.282;2023-02-01T06:47:24;95310.00;;;2.79;89.08
9855;BME280;4966;48.112;9.282;2023-02-01T06:49:49;95319.72;;;2.65;89.79
9855;BME280;4966;48.112;9.282;2023-02-01T06:52:15;95304.72;;;2.33;91.52
9855;BME280;4966;48.112;9.282;2023-02-01T06:54:40;95309.31;;;2.32;91.57
9855;BME280;4966;48.112;9.282;2023-02-01T06:57:05;95311.16;;;2.32;92.04
9855;BME280;4966;48.112;9.282;2023-02-01T06:59:31;95310.09;;;2.38;92.39
9855;BME280;4966;48.112;9.282;2023-02-01T07:01:56;95312.50;;;2.45;91.64
9855;BME280;4966;48.112;9.282;2023-02-01T07:04:21;95321.38;;;2.35;91.96
9855;BME280;4966;48.112;9.282;2023-02-01T07:06:47;95324.31;;;2.39;91.95
9855;BME280;4966;48.112;9.282;2023-02-01T07:09:12;95322.66;;;2.63;91.00
9855;BME280;4966;48.112;9.282;2023-02-01T07:11:39;95322.69;;;2.68;90.47
9855;BME280;4966;48.112;9.282;2023-02-01T07:14:08;95318.41;;;2.47;91.76
9855;BME280;4966;48.112;9.282;2023-02-01T07:16:33;95320.56;;;2.34;92.22
9855;BME280;4966;48.112;9.282;2023-02-01T07:18:58;95310.59;;;2.61;91.13
9855;BME280;4966;48.112;9.282;2023-02-01T07:21:24;95315.72;;;2.37;92.83
9855;BME280;4966;48.112;9.282;2023-02-01T07:23:50;95301.50;;;2.41;92.43
9855;BME280;4966;48.112;9.282;2023-02-01T07:26:15;95305.50;;;2.49;92.00
9855;BME280;4966;48.112;9.282;2023-02-01T07:28:41;95321.78;;;2.93;90.02
9855;BME280;4966;48.112;9.282;2023-02-01T07:31:13;95336.59;;;2.86;89.84
9855;BME280;4966;48.112;9.282;2023-02-01T07:33:40;95336.38;;;2.62;91.38
9855;BME280;4966;48.112;9.282;2023-02-01T07:36:07;95331.00;;;2.67;90.49
9855;BME280;4966;48.112;9.282;2023-02-01T07:38:35;95340.38;;;2.74;90.66
9855;BME280;4966;48.112;9.282;2023-02-01T07:41:02;95346.06;;;2.52;91.32
9855;BME280;4966;48.112;9.282;2023-02-01T07:43:29;95339.63;;;2.59;91.70
9855;BME280;4966;48.112;9.282;2023-02-01T07:45:55;95343.63;;;2.51;92.11
9855;BME280;4966;48.112;9.282;2023-02-01T07:48:22;95340.13;;;2.71;90.76
9855;BME280;4966;48.112;9.282;2023-02-01T07:50:48;95330.72;;;2.73;91.22
9855;BME280;4966;48.112;9.282;2023-02-01T07:53:14;95321.38;;;2.35;92.67
9855;BME280;4966;48.112;9.282;2023-02-01T07:55:40;95330.25;;;2.25;94.04
9855;BME280;4966;48.112;9.282;2023-02-01T07:58:05;95327.53;;;2.36;93.51
9855;BME280;4966;48.112;9.282;2023-02-01T08:00:31;95324.06;;;2.25;94.56
9855;BME280;4966;48.112;9.282;2023-02-01T08:03:15;95334.25;;;2.38;94.50
9855;BME280;4966;48.112;9.282;2023-02-01T08:05:41;95343.09;;;2.49;92.79
9855;BME280;4966;48.112;9.282;2023-02-01T08:08:06;95337.44;;;2.61;92.12
9855;BME280;4966;48.112;9.282;2023-02-01T08:10:32;95345.22;;;2.72;91.69
9855;BME280;4966;48.112;9.282;2023-02-01T08:12:59;95345.47;;;2.66;91.94
9855;BME280;4966;48.112;9.282;2023-02-01T08:15:26;95343.06;;;2.69;91.65
9855;BME280;4966;48.112;9.282;2023-02-01T08:17:52;95347.59;;;3.00;90.06
9855;BME280;4966;48.112;9.282;2023-02-01T08:20:18;95347.63;;;2.74;90.99
9855;BME280;4966;48.112;9.282;2023-02-01T08:22:44;95355.13;;;2.87;90.54
9855;BME280;4966;48.112;9.282;2023-02-01T08:25:10;95358.88;;;2.91;90.18
9855;BME280;4966;48.112;9.282;2023-02-01T08:27:36;95369.94;;;2.64;91.08
9855;BME280;4966;48.112;9.282;2023-02-01T08:30:03;95385.25;;;2.53;91.74
9855;BME280;4966;48.112;9.282;2023-02-01T08:32:29;95373.97;;;2.46;92.93
9855;BME280;4966;48.112;9.282;2023-02-01T08:34:55;95365.66;;;2.48;93.07
9855;BME280;4966;48.112;9.282;2023-02-01T08:37:20;95373.47;;;2.49;93.19
9855;BME280;4966;48.112;9.282;2023-02-01T08:39:46;95368.91;;;2.40;93.25
9855;BME280;4966;48.112;9.282;2023-02-01T08:42:12;95368.63;;;2.57;92.45
9855;BME280;4966;48.112;9.282;2023-02-01T08:44:56;95352.72;;;2.86;90.92
9855;BME280;4966;48.112;9.282;2023-02-01T08:47:22;95346.03;;;2.68;91.42
9855;BME280;4966;48.112;9.282;2023-02-01T08:49:48;95353.59;;;2.45;92.85
9855;BME280;4966;48.112;9.282;2023-02-01T08:52:13;95349.56;;;2.48;93.15
9855;BME280;4966;48.112;9.282;2023-02-01T08:54:39;95363.53;;;2.45;93.01
9855;BME280;4966;48.112;9.282;2023-02-01T08:57:06;95360.81;;;2.34;93.52
9855;BME280;4966;48.112;9.282;2023-02-01T08:59:31;95363.50;;;2.34;94.12
9855;BME280;4966;48.112;9.282;2023-02-01T09:01:57;95359.22;;;2.08;95.12
9855;BME280;4966;48.112;9.282;2023-02-01T09:04:22;95348.47;;;2.13;95.25
9855;BME280;4966;48.112;9.282;2023-02-01T09:06:48;95360.03;;;2.19;95.07
9855;BME280;4966;48.112;9.282;2023-02-01T09:09:13;95376.66;;;2.00;96.74
9855;BME280;4966;48.112;9.282;2023-02-01T09:11:38;95376.41;;;2.02;96.22
9855;BME280;4966;48.112;9.282;2023-02-01T09:14:04;95387.69;;;2.14;95.65
9855;BME280;4966;48.112;9.282;2023-02-01T09:16:29;95392.50;;;2.07;96.15
9855;BME280;4966;48.112;9.282;2023-02-01T09:18:55;95394.69;;;2.30;95.22
9855;BME280;4966;48.112;9.282;2023-02-01T09:21:20;95384.75;;;2.21;95.67
9855;BME280;4966;48.112;9.282;2023-02-01T09:23:45;95390.63;;;2.12;96.23
9855;BME280;4966;48.112;9.282;2023-02-01T09:26:14;95407.56;;;2.33;95.10
9855;BME280;4966;48.112;9.282;2023-02-01T09:28:40;95412.63;;;2.15;97.03
9855;BME280;4966;48.112;9.282;2023-02-01T09:31:05;95419.88;;;2.14;97.09
9855;BME280;4966;48.112;9.282;2023-02-01T09:33:30;95413.44;;;2.05;96.85
9855;BME280;4966;48.112;9.282;2023-02-01T09:35:57;95414.78;;;2.07;96.78
9855;BME280;4966;48.112;9.282;2023-02-01T09:38:23;95416.09;;;1.89;98.19
9855;BME280;4966;48.112;9.282;2023-02-01T09:40:50;95408.28;;;1.83;98.65
9855;BME280;4966;48.112;9.282;2023-02-01T09:43:35;95412.31;;;1.90;98.95
9855;BME280;4966;48.112;9.282;2023-02-01T09:46:31;95400.25;;;1.93;98.95
9855;BME280;4966;48.112;9.282;2023-02-01T09:49:01;95391.41;;;2.13;98.74
9855;BME280;4966;48.112;9.282;2023-02-01T09:51:37;95382.84;;;2.21;98.57
9855;BME280;4966;48.112;9.282;2023-02-01T09:54:21;95386.88;;;2.39;97.40
9855;BME280;4966;48.112;9.282;2023-02-01T09:57:37;95387.97;;;2.38;97.18
9855;BME280;4966;48.112;9.282;2023-02-01T09:59:42;95387.41;;;2.36;96.99
9855;BME280;4966;48.112;9.282;2023-02-01T10:02:15;95390.63;;;2.69;96.80
9855;BME280;4966;48.112;9.282;2023-02-01T10:04:41;95400.84;;;2.67;95.79
9855;BME280;4966;48.112;9.282;2023-02-01T10:07:10;95376.09;;;2.90;95.05
9855;BME280;4966;48.112;9.282;2023-02-01T10:09:52;95380.13;;;2.88;94.19
9855;BME280;4966;48.112;9.282;2023-02-01T10:12:39;95383.16;;;3.51;91.55
9855;BME280;4966;48.112;9.282;2023-02-01T10:15:26;95382.16;;;3.27;91.88
9855;BME280;4966;48.112;9.282;2023-02-01T10:21:13;95387.06;;;3.09;91.72
9855;BME280;4966;48.112;9.282;2023-02-01T10:26:36;95390.88;;;2.88;93.32
9855;BME280;4966;48.112;9.282;2023-02-01T10:29:04;95399.22;;;2.61;93.98
9855;BME280;4966;48.112;9.282;2023-02-01T10:31:37;95402.16;;;2.74;93.18
9855;BME280;4966;48.112;9.282;2023-02-01T10:34:26;95402.69;;;3.02;92.20
9855;BME280;4966;48.112;9.282;2023-02-01T10:37:30;95406.47;;;2.70;93.00
9855;BME280;4966;48.112;9.282;2023-02-01T10:40:02;95396.50;;;2.86;92.25
9855;BME280;4966;48.112;9.282;2023-02-01T10:42:34;95405.38;;;2.97;91.74
9855;BME280;4966;48.112;9.282;2023-02-01T10:45:02;95398.31;;;3.27;90.71
9855;BME280;4966;48.112;9.282;2023-02-01T10:47:28;95395.66;;;3.01;91.74
9855;BME280;4966;48.112;9.282;2023-02-01T10:53:04;95402.66;;;3.07;91.49
9855;BME280;4966;48.112;9.282;2023-02-01T10:55:41;95393.16;;;3.40;89.10
9855;BME280;4966;48.112;9.282;2023-02-01T10:58:33;95388.09;;;3.29;89.46
9855;BME280;4966;48.112;9.282;2023-02-01T11:01:09;95391.59;;;3.24;90.19
9855;BME280;4966;48.112;9.282;2023-02-01T11:03:42;95390.50;;;3.25;89.39
9855;BME280;4966;48.112;9.282;2023-02-01T11:08:54;95388.59;;;3.36;88.97
9855;BME280;4966;48.112;9.282;2023-02-01T11:11:20;95387.00;;;3.30;88.67
9855;BME280;4966;48.112;9.282;2023-02-01T11:13:52;95385.91;;;3.36;89.15
9855;BME280;4966;48.112;9.282;2023-02-01T11:16:18;95364.78;;;3.63;86.96
9855;BME280;4966;48.112;9.282;2023-02-01T11:18:44;95371.00;;;3.59;87.58
9855;BME280;4966;48.112;9.282;2023-02-01T11:21:10;95365.97;;;3.42;87.68
9855;BME280;4966;48.112;9.282;2023-02-01T11:23:44;95364.00;;;3.63;87.27
9855;BME280;4966;48.112;9.282;2023-02-01T11:26:14;95361.06;;;3.59;86.95
9855;BME280;4966;48.112;9.282;2023-02-01T11:28:46;95356.22;;;3.56;87.80
9855;BME280;4966;48.112;9.282;2023-02-01T11:31:15;95351.22;;;3.84;86.26
9855;BME280;4966;48.112;9.282;2023-02-01T11:33:47;95345.63;;;3.75;86.61
9855;BME280;4966;48.112;9.282;2023-02-01T11:36:19;95343.34;;;3.98;86.02
9855;BME280;4966;48.112;9.282;2023-02-01T11:38:52;95339.66;;;3.83;85.69
9855;BME280;4966;48.112;9.282;2023-02-01T11:41:25;95335.56;;;3.91;85.60
9855;BME280;4966;48.112;9.282;2023-02-01T11:44:04;95332.47;;;3.74;86.46
9855;BME280;4966;48.112;9.282;2023-02-01T11:46:41;95342.13;;;3.75;86.34
9855;BME280;4966;48.112;9.282;2023-02-01T11:52:10;95348.47;;;3.94;85.00
9855;BME280;4966;48.112;9.282;2023-02-01T11:57:32;95347.78;;;3.78;88.31
9855;BME280;4966;48.112;9.282;2023-02-01T12:02:56;95342.13;;;3.75;89.41
9855;BME280;4966;48.112;9.282;2023-02-01T12:22:14;95295.91;;;4.07;87.73
9855;BME280;4966;48.112;9.282;2023-02-01T12:39:22;95269.47;;;4.09;86.94
9855;BME280;4966;48.112;9.282;2023-02-01T12:42:08;95275.44;;;4.06;86.91
9855;BME280;4966;48.112;9.282;2023-02-01T12:44:50;95263.56;;;4.12;86.61
9855;BME280;4966;48.112;9.282;2023-02-01T12:47:23;95268.97;;;4.07;86.38
9855;BME280;4966;48.112;9.282;2023-02-01T12:52:51;95269.41;;;4.48;84.21
9855;BME280;4966;48.112;9.282;2023-02-01T12:55:24;95278.72;;;4.32;84.25
9855;BME280;4966;48.112;9.282;2023-02-01T12:57:55;95280.34;;;4.28;83.41
9855;BME280;4966;48.112;9.282;2023-02-01T13:00:30;95269.59;;;4.28;84.21
9855;BME280;4966;48.112;9.282;2023-02-01T13:06:06;95294.19;;;3.37;89.17
9855;BME280;4966;48.112;9.282;2023-02-01T13:08:48;95297.66;;;3.43;89.41
9855;BME280;4966;48.112;9.282;2023-02-01T13:11:20;95293.75;;;3.15;91.42
9855;BME280;4966;48.112;9.282;2023-02-01T13:13:56;95303.03;;;2.73;93.64
9855;BME280;4966;48.112;9.282;2023-02-01T13:16:51;95292.53;;;2.82;94.35
9855;BME280;4966;48.112;9.282;2023-02-01T13:19:26;95289.06;;;2.81;94.58
9855;BME280;4966;48.112;9.282;2023-02-01T13:22:20;95276.38;;;2.97;94.71
9855;BME280;4966;48.112;9.282;2023-02-01T13:24:56;95274.84;;;2.75;91.75
9855;BME280;4966;48.112;9.282;2023-02-01T13:27:26;95273.78;;;2.71;90.74
9855;BME280;4966;48.112;9.282;2023-02-01T13:29:57;95270.28;;;3.36;88.83
9855;BME280;4966;48.112;9.282;2023-02-01T13:35:20;95272.47;;;3.29;87.80
9855;BME280;4966;48.112;9.282;2023-02-01T13:40:33;95281.09;;;3.26;87.03
9855;BME280;4966;48.112;9.282;2023-02-01T13:43:18;95280.22;;;3.30;85.83
9855;BME280;4966;48.112;9.282;2023-02-01T13:45:57;95273.97;;;3.50;86.08
9855;BME280;4966;48.112;9.282;2023-02-01T13:48:32;95280.47;;;3.39;84.83
9855;BME280;4966;48.112;9.282;2023-02-01T13:51:00;95282.00;;;3.55;85.41
9855;BME280;4966;48.112;9.282;2023-02-01T13:53:31;95277.69;;;3.94;82.73
9855;BME280;4966;48.112;9.282;2023-02-01T13:56:01;95289.91;;;3.81;83.62
9855;BME280;4966;48.112;9.282;2023-02-01T13:58:35;95289.69;;;3.72;83.17
9855;BME280;4966;48.112;9.282;2023-02-01T14:03:55;95273.16;;;3.89;82.94
9855;BME280;4966;48.112;9.282;2023-02-01T14:11:54;95285.44;;;4.00;81.52
9855;BME280;4966;48.112;9.282;2023-02-01T14:19:23;95271.41;;;4.03;82.28
9855;BME280;4966;48.112;9.282;2023-02-01T14:21:54;95273.94;;;3.90;81.58
9855;BME280;4966;48.112;9.282;2023-02-01T14:24:32;95275.53;;;3.96;81.51
9855;BME280;4966;48.112;9.282;2023-02-01T14:27:13;95278.50;;;4.23;79.68
9855;BME280;4966;48.112;9.282;2023-02-01T14:29:43;95274.03;;;4.14;79.95
9855;BME280;4966;48.112;9.282;2023-02-01T14:32:19;95277.19;;;4.21;79.02
9855;BME280;4966;48.112;9.282;2023-02-01T14:37:32;95270.72;;;3.88;78.55
9855;BME280;4966;48.112;9.282;2023-02-01T14:40:25;95273.22;;;4.13;77.42
9855;BME280;4966;48.112;9.282;2023-02-01T14:42:52;95277.53;;;4.14;77.08
9855;BME280;4966;48.112;9.282;2023-02-01T14:48:39;95263.81;;;4.40;74.95
9855;BME280;4966;48.112;9.282;2023-02-01T14:50:43;95258.56;;;4.54;74.03
9855;BME280;4966;48.112;9.282;2023-02-01T14:55:40;95262.75;;;4.41;72.95
9855;BME280;4966;48.112;9.282;2023-02-01T14:58:16;95263.81;;;4.40;72.64
9855;BME280;4966;48.112;9.282;2023-02-01T15:00:57;95264.56;;;4.16;72.23
9855;BME280;4966;48.112;9.282;2023-02-01T15:05:58;95274.66;;;4.35;71.60
9855;BME280;4966;48.112;9.282;2023-02-01T15:08:28;95273.63;;;3.96;70.80
9855;BME280;4966;48.112;9.282;2023-02-01T15:10:57;95270.22;;;4.20;71.62
9855;BME280;4966;48.112;9.282;2023-02-01T15:13:27;95270.31;;;4.39;70.53
9855;BME280;4966;48.112;9.282;2023-02-01T15:16:00;95281.41;;;4.61;69.87
9855;BME280;4966;48.112;9.282;2023-02-01T15:18:26;95281.78;;;4.20;70.12
9855;BME280;4966;48.112;9.282;2023-02-01T15:21:00;95284.19;;;4.22;69.78
9855;BME280;4966;48.112;9.282;2023-02-01T15:23:26;95290.97;;;4.19;70.02
9855;BME280;4966;48.112;9.282;2023-02-01T15:25:51;95291.09;;;4.33;69.57
9855;BME280;4966;48.112;9.282;2023-02-01T15:28:17;95281.44;;;4.56;70.01
9855;BME280;4966;48.112;9.282;2023-02-01T15:33:25;95294.56;;;4.04;69.39
9855;BME280;4966;48.112;9.282;2023-02-01T15:36:16;95297.09;;;4.25;69.00
9855;BME280;4966;48.112;9.282;2023-02-01T15:38:43;95305.91;;;4.31;69.32
9855;BME280;4966;48.112;9.282;2023-02-01T15:41:13;95309.72;;;4.59;68.49
9855;BME280;4966;48.112;9.282;2023-02-01T15:46:32;95306.47;;;3.98;68.87
9855;BME280;4966;48.112;9.282;2023-02-01T15:48:59;95306.91;;;4.11;68.42
9855;BME280;4966;48.112;9.282;2023-02-01T15:51:27;95305.84;;;4.07;68.64
9855;BME280;4966;48.112;9.282;2023-02-01T15:53:58;95311.59;;;4.29;68.61
9855;BME280;4966;48.112;9.282;2023-02-01T15:56:26;95312.69;;;4.28;68.01
9855;BME280;4966;48.112;9.282;2023-02-01T15:58:56;95308.28;;;4.08;67.04